Time;durP1;ratioP1;P1;durP2;ratioP2;P2;SDS_P1;SDS_P2;PMS_P1;PMS_P2;Temp;Humidity;BMP_temperature;BMP_pressure;BME280_temperature;BME280_humidity;BME280_pressure;Samples;Min_cycle;Max_cycle;Signal;HPM_P1;HPM_P2
2023/06/08 00:00:10;;;;;;;14.43;7.15;;;;;;;15.29;71.74;101728.22;4951147;29;20054;-84
2023/06/08 00:02:42;;;;;;;14.60;6.72;;;;;;;15.27;71.92;101715.63;4935622;29;20023;-84
2023/06/08 00:05:12;;;;;;;14.48;6.85;;;;;;;15.23;72.30;101714.97;4952340;29;20039;-84
2023/06/08 00:07:40;;;;;;;19.50;6.70;;;;;;;15.17;72.84;101714.59;4950646;29;20039;-84
2023/06/08 00:10:07;;;;;;;20.95;7.20;;;;;;;15.14;72.85;101714.81;4951561;28;20054;-83
2023/06/08 00:12:34;;;;;;;16.35;6.68;;;;;;;15.10;72.95;101716.94;4933426;29;20070;-84
2023/06/08 00:15:00;;;;;;;14.98;6.90;;;;;;;15.04;73.10;101720.16;4950974;28;20436;-84
2023/06/08 00:17:25;;;;;;;16.10;6.78;;;;;;;15.03;73.43;101721.16;4951123;28;20046;-84
2023/06/08 00:19:52;;;;;;;14.38;7.35;;;;;;;15.02;73.62;101725.75;4950323;29;20034;-84
2023/06/08 00:22:18;;;;;;;14.85;6.55;;;;;;;15.00;73.51;101714.03;4950727;29;20037;-84
2023/06/08 00:24:43;;;;;;;14.02;7.00;;;;;;;15.00;73.97;101715.91;4950226;28;20424;-84
2023/06/08 00:27:09;;;;;;;21.10;8.00;;;;;;;14.93;74.08;101714.63;4949894;29;20448;-84
2023/06/08 00:29:36;;;;;;;17.80;7.53;;;;;;;14.91;74.83;101713.88;4949899;28;20027;-84
2023/06/08 00:32:02;;;;;;;17.55;7.18;;;;;;;14.86;74.26;101702.38;4953873;28;20035;-84
2023/06/08 00:34:27;;;;;;;17.60;7.22;;;;;;;14.84;74.73;101712.59;4950621;29;20072;-84
2023/06/08 00:36:55;;;;;;;20.42;7.28;;;;;;;14.84;74.96;101707.13;4951914;28;20506;-84
2023/06/08 00:39:21;;;;;;;20.67;8.18;;;;;;;14.83;74.68;101710.81;4949137;29;20027;-83
2023/06/08 00:41:46;;;;;;;11.38;6.75;;;;;;;14.85;74.32;101706.13;4951168;28;20031;-84
2023/06/08 00:44:12;;;;;;;15.27;7.32;;;;;;;14.83;75.29;101697.13;4951182;29;20495;-84
2023/06/08 00:46:38;;;;;;;16.88;7.78;;;;;;;14.81;75.98;101710.94;4951403;29;20027;-84
2023/06/08 00:49:05;;;;;;;14.00;7.30;;;;;;;14.75;76.38;101695.00;4951214;28;20093;-84
2023/06/08 00:51:36;;;;;;;19.25;7.93;;;;;;;14.76;76.42;101705.81;4930317;29;20110;-84
2023/06/08 00:54:03;;;;;;;19.17;8.05;;;;;;;14.72;75.96;101701.56;4934512;29;20097;-84
2023/06/08 00:56:31;;;;;;;15.45;7.85;;;;;;;14.74;76.06;101701.47;4949235;29;20046;-84
2023/06/08 00:59:00;;;;;;;20.20;7.82;;;;;;;14.73;76.59;101700.56;4951116;28;20133;-84
2023/06/08 01:01:29;;;;;;;16.25;7.65;;;;;;;14.71;75.97;101690.75;4934369;29;20035;-84
2023/06/08 01:04:07;;;;;;;18.20;8.52;;;;;;;14.69;76.34;101690.88;4951125;28;20451;-84
2023/06/08 01:06:39;;;;;;;14.73;7.43;;;;;;;14.72;76.05;101693.34;4950831;29;20498;-83
2023/06/08 01:09:40;;;;;;;21.80;8.18;;;;;;;14.72;75.25;101685.13;4965991;28;20086;-84
2023/06/08 01:12:31;;;;;;;19.50;7.65;;;;;;;14.68;75.86;101688.22;4948327;28;20039;-83
2023/06/08 01:15:37;;;;;;;19.92;7.95;;;;;;;14.69;75.60;101690.00;4949067;29;20043;-84
2023/06/08 01:18:07;;;;;;;16.92;7.82;;;;;;;14.64;77.11;101683.97;4890779;29;20062;-84
2023/06/08 01:21:06;;;;;;;13.15;8.23;;;;;;;14.61;76.89;101689.69;4955445;28;20057;-84
2023/06/08 01:24:10;;;;;;;18.52;7.90;;;;;;;14.57;76.58;101696.41;4949394;29;20395;-84
2023/06/08 01:26:41;;;;;;;18.50;8.32;;;;;;;14.47;77.85;101682.50;4959234;28;20129;-83
2023/06/08 01:29:11;;;;;;;20.20;7.95;;;;;;;14.44;78.22;101690.94;4948977;29;20042;-84
2023/06/08 01:31:37;;;;;;;15.52;7.38;;;;;;;14.40;77.45;101684.81;4949753;28;20039;-84
2023/06/08 01:34:05;;;;;;;17.75;8.52;;;;;;;14.35;78.44;101678.81;4933500;29;20027;-83
2023/06/08 01:36:58;;;;;;;17.95;8.40;;;;;;;14.38;77.28;101689.53;4949817;29;20126;-83
2023/06/08 01:39:30;;;;;;;19.27;8.40;;;;;;;14.25;77.88;101684.09;4948583;28;20047;-84
2023/06/08 01:42:00;;;;;;;15.52;8.40;;;;;;;14.25;78.40;101686.84;4949308;29;20375;-83
2023/06/08 01:44:28;;;;;;;19.45;8.45;;;;;;;14.16;79.22;101682.03;4948889;28;20481;-84
2023/06/08 01:47:00;;;;;;;15.02;8.52;;;;;;;14.16;78.78;101686.66;4964696;28;20066;-84
2023/06/08 01:49:30;;;;;;;16.58;7.60;;;;;;;14.09;78.92;101675.28;4963827;28;20043;-84
2023/06/08 01:51:56;;;;;;;19.50;7.88;;;;;;;14.03;79.50;101676.63;4949534;29;20042;-84
2023/06/08 01:54:22;;;;;;;18.48;8.52;;;;;;;14.02;79.17;101679.44;4949821;28;20043;-84
2023/06/08 01:56:47;;;;;;;21.20;8.95;;;;;;;13.97;78.92;101677.06;4948346;29;20340;-83
2023/06/08 01:59:13;;;;;;;21.38;8.82;;;;;;;13.99;79.18;101672.34;4932051;29;20193;-84
2023/06/08 02:01:39;;;;;;;16.33;8.20;;;;;;;13.96;78.04;101664.38;4933197;28;20055;-84
2023/06/08 02:04:05;;;;;;;20.60;9.07;;;;;;;13.95;79.14;101672.69;4949641;28;20443;-84
2023/06/08 02:06:30;;;;;;;15.93;8.07;;;;;;;13.89;79.37;101674.00;4950757;28;20027;-84
2023/06/08 02:08:56;;;;;;;18.13;9.13;;;;;;;13.84;79.69;101661.66;4932914;29;20046;-84
2023/06/08 02:11:22;;;;;;;18.58;8.80;;;;;;;13.70;80.65;101658.06;4963669;28;20043;-83
2023/06/08 02:13:49;;;;;;;18.95;8.00;;;;;;;13.73;79.37;101666.03;4948368;29;20186;-84
2023/06/08 02:16:14;;;;;;;15.98;8.63;;;;;;;13.71;80.09;101661.69;4964641;28;20740;-84
2023/06/08 02:18:41;;;;;;;18.48;7.75;;;;;;;13.65;80.75;101673.94;4945522;29;20187;-83
2023/06/08 02:21:10;;;;;;;18.50;8.85;;;;;;;13.51;81.16;101669.44;4945509;29;20066;-84
2023/06/08 02:23:36;;;;;;;19.88;8.65;;;;;;;13.51;80.45;101669.44;4932050;29;20502;-84
2023/06/08 02:26:03;;;;;;;17.70;9.13;;;;;;;13.51;81.78;101674.03;4948939;29;20047;-85
2023/06/08 02:28:29;;;;;;;17.33;8.05;;;;;;;13.45;81.94;101679.97;4964621;28;20039;-83
2023/06/08 02:30:54;;;;;;;16.65;9.70;;;;;;;13.36;82.02;101675.16;4948742;28;20027;-83
2023/06/08 02:33:20;;;;;;;18.20;8.93;;;;;;;13.30;82.80;101678.31;4950064;28;20031;-83
2023/06/08 02:35:46;;;;;;;20.17;8.27;;;;;;;13.26;81.66;101672.19;4947684;28;20106;-84
2023/06/08 02:38:12;;;;;;;16.92;8.73;;;;;;;13.26;82.12;101685.84;4961017;28;20436;-83
2023/06/08 02:40:38;;;;;;;20.98;8.88;;;;;;;13.24;81.86;101679.59;4930828;29;20040;-83
2023/06/08 02:43:03;;;;;;;17.95;8.52;;;;;;;13.21;82.12;101686.16;4947420;29;20053;-84
2023/06/08 02:45:31;;;;;;;16.20;8.75;;;;;;;13.20;82.75;101673.47;4964756;28;20051;-83
2023/06/08 02:47:57;;;;;;;17.83;8.13;;;;;;;13.18;81.27;101680.00;4948503;29;20034;-84
2023/06/08 02:50:23;;;;;;;16.42;8.80;;;;;;;13.22;81.35;101673.38;4948665;29;20031;-84
2023/06/08 02:52:49;;;;;;;24.17;8.13;;;;;;;13.16;82.53;101668.31;4931923;29;20035;-84
2023/06/08 02:55:15;;;;;;;17.65;8.77;;;;;;;13.11;83.06;101671.38;4948020;28;20039;-84
2023/06/08 02:57:40;;;;;;;22.80;9.13;;;;;;;13.09;83.25;101673.31;4948414;28;20670;-84
2023/06/08 03:00:13;;;;;;;19.73;8.65;;;;;;;13.01;83.67;101673.88;4948007;29;20495;-83
2023/06/08 03:03:02;;;;;;;15.10;8.50;;;;;;;12.96;83.00;101676.06;4949863;28;20047;-84
2023/06/08 03:05:29;;;;;;;17.30;8.40;;;;;;;12.95;83.25;101673.41;4945369;29;20291;-84
2023/06/08 03:07:58;;;;;;;19.65;8.70;;;;;;;12.88;84.25;101670.25;4944933;29;20587;-84
2023/06/08 03:10:24;;;;;;;20.15;8.55;;;;;;;12.88;83.44;101667.50;4961434;28;20035;-84
2023/06/08 03:12:50;;;;;;;17.02;9.15;;;;;;;12.83;84.32;101657.91;4946900;28;20028;-84
2023/06/08 03:15:22;;;;;;;18.05;8.90;;;;;;;12.82;83.81;101670.66;4950620;28;20036;-84
2023/06/08 03:17:49;;;;;;;25.40;9.02;;;;;;;12.85;82.90;101664.97;4935815;29;20127;-84
2023/06/08 03:20:17;;;;;;;20.52;8.85;;;;;;;12.82;84.55;101658.84;4951994;28;20070;-84
2023/06/08 03:22:48;;;;;;;19.67;9.35;;;;;;;12.79;84.49;101662.69;4968008;28;20271;-84
2023/06/08 03:25:15;;;;;;;22.90;8.95;;;;;;;12.75;85.20;101661.13;4950822;28;20043;-83
2023/06/08 03:27:43;;;;;;;14.65;8.32;;;;;;;12.71;84.17;101656.88;4951636;29;20038;-84
2023/06/08 03:30:12;;;;;;;21.45;9.38;;;;;;;12.70;85.52;101669.66;4951919;29;20035;-84
2023/06/08 03:32:48;;;;;;;18.77;9.95;;;;;;;12.68;85.49;101667.97;4951713;28;20027;-84
2023/06/08 03:35:16;;;;;;;21.48;10.48;;;;;;;12.60;85.32;101667.66;4967498;28;20170;-83
2023/06/08 03:37:43;;;;;;;18.52;9.63;;;;;;;12.59;84.52;101668.59;4951512;28;20102;-84
2023/06/08 03:40:09;;;;;;;23.83;9.98;;;;;;;12.51;86.33;101660.97;4935407;29;20484;-84
2023/06/08 03:42:35;;;;;;;22.88;10.65;;;;;;;12.53;86.31;101669.91;4934149;29;20482;-84
2023/06/08 03:45:00;;;;;;;22.80;9.88;;;;;;;12.50;85.71;101668.28;4951735;29;20057;-84
2023/06/08 03:47:26;;;;;;;22.38;10.32;;;;;;;12.51;86.24;101667.28;4935395;29;20403;-83
2023/06/08 03:49:52;;;;;;;21.65;9.32;;;;;;;12.50;86.38;101662.81;4950974;28;20498;-83
2023/06/08 03:52:18;;;;;;;19.10;9.52;;;;;;;12.48;86.56;101659.31;4951069;29;20046;-83
2023/06/08 03:54:44;;;;;;;21.75;9.40;;;;;;;12.50;86.50;101660.09;4934354;29;20406;-84
2023/06/08 03:57:10;;;;;;;18.90;9.57;;;;;;;12.48;86.22;101664.75;4943594;29;20031;-83
2023/06/08 03:59:37;;;;;;;23.83;9.82;;;;;;;12.52;86.26;101668.16;4966847;28;20035;-84
2023/06/08 04:02:03;;;;;;;22.25;9.35;;;;;;;12.59;85.17;101665.88;4951234;29;20447;-84
2023/06/08 04:04:31;;;;;;;18.13;9.02;;;;;;;12.58;86.03;101656.81;4937534;29;20067;-83
2023/06/08 04:07:00;;;;;;;23.67;9.85;;;;;;;12.61;86.44;101666.66;4932416;29;20047;-84
2023/06/08 04:09:31;;;;;;;22.95;9.75;;;;;;;12.60;86.68;101671.25;4915197;29;20028;-83
2023/06/08 04:11:57;;;;;;;26.48;9.80;;;;;;;12.56;86.65;101671.56;4926015;29;20460;-84
2023/06/08 04:14:24;;;;;;;16.10;9.30;;;;;;;12.60;85.51;101664.94;4949857;29;20039;-83
2023/06/08 04:16:51;;;;;;;21.52;10.23;;;;;;;12.66;85.92;101657.19;4947276;28;20495;-84
2023/06/08 04:19:16;;;;;;;20.65;9.27;;;;;;;12.76;85.65;101665.63;4958921;28;20031;-84
2023/06/08 04:21:42;;;;;;;18.88;9.05;;;;;;;12.80;84.34;101664.44;4950105;29;20511;-83
2023/06/08 04:24:10;;;;;;;18.17;9.25;;;;;;;12.83;85.13;101661.50;4966040;28;20074;-84
2023/06/08 04:26:38;;;;;;;23.10;9.95;;;;;;;12.82;84.54;101656.13;4948685;28;20097;-84
2023/06/08 04:29:04;;;;;;;17.85;10.88;;;;;;;12.79;85.26;101659.09;4949930;29;20031;-83
2023/06/08 04:31:30;;;;;;;22.45;9.70;;;;;;;12.80;84.80;101666.28;4950909;29;20114;-84
2023/06/08 04:33:56;;;;;;;28.38;10.05;;;;;;;12.78;84.10;101658.22;4950285;29;20026;-83
2023/06/08 04:36:22;;;;;;;18.23;10.07;;;;;;;12.79;85.23;101661.81;4966502;28;20153;-84
2023/06/08 04:38:49;;;;;;;18.60;10.35;;;;;;;12.74;85.33;101659.41;4949161;29;20023;-83
2023/06/08 04:41:18;;;;;;;20.73;9.88;;;;;;;12.68;85.96;101663.44;4957995;28;20027;-83
2023/06/08 04:43:45;;;;;;;23.17;10.10;;;;;;;12.65;86.11;101654.56;4948997;28;20121;-83
2023/06/08 04:46:12;;;;;;;23.15;10.18;;;;;;;12.63;85.97;101654.66;4964441;28;20502;-84
2023/06/08 04:48:38;;;;;;;26.58;10.73;;;;;;;12.65;86.01;101654.56;4949502;29;20063;-83
2023/06/08 04:51:04;;;;;;;23.85;10.55;;;;;;;12.63;86.12;101654.66;4966252;28;20090;-84
2023/06/08 04:53:34;;;;;;;20.92;10.02;;;;;;;12.69;85.88;101656.09;4949844;29;20463;-84
2023/06/08 04:56:01;;;;;;;23.42;9.80;;;;;;;12.81;84.31;101660.72;4949233;28;20483;-84
2023/06/08 04:58:28;;;;;;;20.83;10.63;;;;;;;12.76;85.21;101657.44;4950263;28;20062;-84
2023/06/08 05:00:55;;;;;;;19.63;10.02;;;;;;;12.75;85.22;101655.69;4950092;28;20043;-84
2023/06/08 05:03:20;;;;;;;25.73;10.77;;;;;;;12.86;84.27;101660.38;4949835;29;20133;-84
2023/06/08 05:05:47;;;;;;;21.73;9.70;;;;;;;12.86;85.10;101663.13;4950680;28;20155;-83
2023/06/08 05:08:12;;;;;;;22.15;10.57;;;;;;;12.82;85.00;101657.00;4949523;28;20486;-84
2023/06/08 05:10:37;;;;;;;23.38;10.70;;;;;;;12.80;85.37;101650.78;4936244;29;20034;-84
2023/06/08 05:13:03;;;;;;;20.25;9.93;;;;;;;12.82;85.24;101654.25;4949401;29;20045;-84
2023/06/08 05:15:31;;;;;;;23.08;9.93;;;;;;;12.87;84.94;101654.84;4965714;28;20039;-83
2023/06/08 05:17:57;;;;;;;21.00;9.98;;;;;;;12.95;84.49;101643.38;4965431;28;20457;-84
2023/06/08 05:20:24;;;;;;;22.50;10.77;;;;;;;13.08;83.89;101663.38;4948644;29;20031;-84
2023/06/08 05:22:49;;;;;;;22.05;10.60;;;;;;;13.10;83.85;101653.22;4965222;28;20407;-84
2023/06/08 05:25:16;;;;;;;21.92;10.38;;;;;;;13.11;84.27;101657.72;4950047;29;20160;-84
2023/06/08 05:27:41;;;;;;;27.58;10.70;;;;;;;13.14;83.38;101660.22;4928598;29;20488;-84
2023/06/08 05:30:07;;;;;;;16.67;8.98;;;;;;;13.17;82.40;101660.00;4930298;29;20566;-84
2023/06/08 05:32:32;;;;;;;27.65;11.20;;;;;;;13.17;83.00;101654.53;4964659;28;20125;-85
2023/06/08 05:34:58;;;;;;;21.20;9.85;;;;;;;13.19;83.23;101654.44;4948158;28;20034;-84
2023/06/08 05:37:24;;;;;;;22.55;10.20;;;;;;;13.24;82.66;101650.44;4952045;28;20039;-84
2023/06/08 05:39:50;;;;;;;23.13;11.55;;;;;;;13.28;82.53;101660.16;4950485;28;20419;-84
2023/06/08 05:42:15;;;;;;;24.60;11.32;;;;;;;13.30;81.87;101643.66;4949400;29;20049;-84
2023/06/08 05:44:41;;;;;;;18.65;10.35;;;;;;;13.41;82.41;101646.50;4948560;29;20035;-84
2023/06/08 05:47:06;;;;;;;24.65;10.88;;;;;;;13.44;81.52;101643.56;4950552;29;20086;-84
2023/06/08 05:49:32;;;;;;;24.30;11.07;;;;;;;13.44;82.36;101638.09;4962424;28;20130;-85
2023/06/08 05:51:57;;;;;;;21.25;10.90;;;;;;;13.43;82.42;101640.91;4951231;29;20093;-84
2023/06/08 05:54:22;;;;;;;17.45;10.15;;;;;;;13.46;81.46;101646.16;4964514;28;20046;-83
2023/06/08 05:56:48;;;;;;;25.85;12.52;;;;;;;13.47;81.47;101637.84;4932217;29;20065;-84
2023/06/08 05:59:13;;;;;;;26.00;11.15;;;;;;;13.56;81.20;101639.03;4944783;29;20411;-84
2023/06/08 06:01:39;;;;;;;22.85;11.73;;;;;;;13.56;81.12;101641.78;4931347;29;20428;-84
2023/06/08 06:04:04;;;;;;;22.27;10.50;;;;;;;13.61;81.25;101638.72;4923330;29;20043;-84
2023/06/08 06:06:32;;;;;;;19.70;12.50;;;;;;;13.59;80.74;101638.84;4950724;28;20110;-83
2023/06/08 06:08:57;;;;;;;21.92;10.30;;;;;;;13.59;81.92;101635.22;4932585;29;20106;-83
2023/06/08 06:11:22;;;;;;;26.17;12.25;;;;;;;13.60;81.11;101642.44;4931684;29;20030;-83
2023/06/08 06:13:48;;;;;;;23.45;11.13;;;;;;;13.59;81.28;101638.84;4948000;28;20038;-84
2023/06/08 06:16:13;;;;;;;18.73;10.40;;;;;;;13.64;82.07;101639.38;4948587;29;20039;-84
2023/06/08 06:18:38;;;;;;;28.83;10.95;;;;;;;13.74;81.53;101639.56;4964701;28;20062;-83
2023/06/08 06:21:04;;;;;;;25.17;11.48;;;;;;;13.81;81.48;101640.00;4950056;29;20031;-84
2023/06/08 06:23:29;;;;;;;21.52;11.18;;;;;;;13.84;80.08;101637.91;4948539;29;20384;-83
2023/06/08 06:25:57;;;;;;;22.83;11.02;;;;;;;13.95;80.35;101638.00;4947179;28;20043;-84
2023/06/08 06:28:22;;;;;;;25.38;11.80;;;;;;;14.07;80.15;101638.06;4964033;28;20046;-84
2023/06/08 06:30:47;;;;;;;29.08;11.57;;;;;;;14.08;80.08;101640.69;4950138;29;20043;-84
2023/06/08 06:33:13;;;;;;;25.88;12.05;;;;;;;14.06;80.26;101645.41;4964189;28;20431;-83
2023/06/08 06:35:38;;;;;;;30.33;11.30;;;;;;;14.14;80.69;101639.38;4948914;29;20404;-84
2023/06/08 06:38:03;;;;;;;24.65;11.73;;;;;;;14.26;80.29;101642.03;4948450;28;20052;-84
2023/06/08 06:40:29;;;;;;;26.70;11.85;;;;;;;14.43;79.96;101637.16;4948335;29;20035;-84
2023/06/08 06:42:56;;;;;;;27.52;11.77;;;;;;;14.50;78.88;101643.94;4947476;29;20483;-84
2023/06/08 06:45:30;;;;;;;30.73;12.77;;;;;;;14.47;78.10;101641.44;4949171;28;20070;-84
2023/06/08 06:47:55;;;;;;;27.27;12.13;;;;;;;14.56;77.96;101640.75;4948140;28;20074;-84
2023/06/08 06:50:21;;;;;;;20.42;11.45;;;;;;;14.68;78.41;101648.00;4967674;28;20407;-84
2023/06/08 06:52:46;;;;;;;25.60;12.45;;;;;;;14.75;77.92;101641.09;4953036;29;20090;-83
2023/06/08 06:55:12;;;;;;;18.23;11.02;;;;;;;14.80;78.31;101652.56;4953320;28;20456;-83
2023/06/08 06:57:37;;;;;;;30.48;12.05;;;;;;;14.84;78.14;101653.19;4966938;28;20046;-84
2023/06/08 07:00:09;;;;;;;21.60;12.52;;;;;;;14.83;76.97;101661.50;4953156;28;20054;-84
2023/06/08 07:02:37;;;;;;;23.10;11.43;;;;;;;14.77;77.40;101650.03;4968319;28;20038;-84
2023/06/08 07:05:04;;;;;;;28.55;11.93;;;;;;;14.83;78.25;101650.56;4951533;29;20031;-85
2023/06/08 07:07:30;;;;;;;21.23;12.30;;;;;;;14.87;78.19;101658.41;4953849;28;20043;-84
2023/06/08 07:09:55;;;;;;;26.02;12.80;;;;;;;14.92;77.68;101661.72;4952691;28;20479;-84
2023/06/08 07:12:20;;;;;;;21.42;11.40;;;;;;;14.98;77.13;101660.34;4950843;29;20039;-84
2023/06/08 07:14:46;;;;;;;26.67;12.95;;;;;;;15.02;77.30;101656.38;4953367;28;20336;-83
2023/06/08 07:17:12;;;;;;;24.48;11.93;;;;;;;15.14;78.12;101651.78;4953357;28;20471;-84
2023/06/08 07:19:39;;;;;;;27.73;12.82;;;;;;;15.23;77.57;101662.91;4967599;28;20486;-84
2023/06/08 07:22:05;;;;;;;23.35;11.98;;;;;;;15.38;77.26;101657.19;4953305;28;20451;-83
2023/06/08 07:24:31;;;;;;;29.08;11.98;;;;;;;15.56;77.70;101656.59;4967454;28;20045;-84
2023/06/08 07:26:56;;;;;;;27.98;12.77;;;;;;;15.67;76.46;101653.03;4960889;28;20043;-84
2023/06/08 07:29:22;;;;;;;23.98;12.43;;;;;;;15.80;76.64;101661.09;4951461;29;20035;-82
2023/06/08 07:31:48;;;;;;;22.95;13.00;;;;;;;15.81;75.21;101651.91;4951242;28;20431;-84
2023/06/08 07:34:13;;;;;;;22.63;12.57;;;;;;;15.92;75.89;101653.75;4952472;28;20043;-84
2023/06/08 07:36:38;;;;;;;26.25;12.20;;;;;;;16.00;74.75;101649.38;4951824;28;20039;-84
2023/06/08 07:39:04;;;;;;;22.58;12.55;;;;;;;16.11;74.74;101647.63;4947995;29;20044;-84
2023/06/08 07:41:30;;;;;;;23.88;12.73;;;;;;;16.17;74.48;101647.97;4934062;29;20039;-83
2023/06/08 07:43:55;;;;;;;25.42;12.50;;;;;;;16.24;73.17;101645.59;4947806;29;20130;-84
2023/06/08 07:46:21;;;;;;;27.48;13.05;;;;;;;16.28;73.59;101638.88;4932414;29;20040;-84
2023/06/08 07:48:47;;;;;;;27.10;13.25;;;;;;;16.36;73.18;101640.94;4943904;29;20030;-83
2023/06/08 07:51:14;;;;;;;23.90;13.43;;;;;;;16.38;72.92;101637.09;4950990;28;20498;-84
2023/06/08 07:53:40;;;;;;;23.10;12.93;;;;;;;16.45;73.06;101631.94;4935037;29;20106;-84
2023/06/08 07:56:06;;;;;;;25.58;12.32;;;;;;;16.53;72.97;101634.91;4965621;28;20182;-83
2023/06/08 07:58:32;;;;;;;23.30;12.45;;;;;;;16.64;73.19;101643.09;4952397;28;20126;-85
2023/06/08 08:00:58;;;;;;;27.50;12.82;;;;;;;16.65;72.67;101641.25;4950719;28;20324;-84
2023/06/08 08:03:23;;;;;;;24.52;12.88;;;;;;;16.75;72.88;101625.75;4952100;28;20171;-84
2023/06/08 08:05:50;;;;;;;28.73;13.55;;;;;;;17.02;72.95;101642.59;4967122;28;20028;-84
2023/06/08 08:08:16;;;;;;;25.92;13.18;;;;;;;17.18;70.78;101633.84;4967206;28;20042;-83
2023/06/08 08:10:41;;;;;;;26.35;12.80;;;;;;;17.48;70.79;101633.00;4950042;29;20047;-83
2023/06/08 08:13:08;;;;;;;21.33;13.25;;;;;;;17.95;68.82;101640.78;4949686;28;20356;-84
2023/06/08 08:15:34;;;;;;;28.85;13.75;;;;;;;18.23;67.99;101637.28;4950779;28;20118;-84
2023/06/08 08:18:00;;;;;;;23.48;11.20;;;;;;;18.65;67.30;101631.50;4950910;29;20047;-84
2023/06/08 08:20:26;;;;;;;20.45;10.93;;;;;;;19.26;68.89;101633.97;4951031;28;20038;-84
2023/06/08 08:22:51;;;;;;;18.77;10.98;;;;;;;20.00;64.51;101644.19;4963056;28;20036;-84
2023/06/08 08:25:17;;;;;;;24.92;12.00;;;;;;;20.19;64.07;101631.28;4930710;29;20047;-84
2023/06/08 08:27:42;;;;;;;22.48;12.73;;;;;;;20.27;62.21;101632.25;4947090;29;20042;-84
2023/06/08 08:30:08;;;;;;;18.20;12.55;;;;;;;20.45;60.89;101631.41;4965956;28;20038;-83
2023/06/08 08:32:33;;;;;;;19.63;12.10;;;;;;;20.64;61.90;101634.06;4948982;29;20039;-84
2023/06/08 08:34:59;;;;;;;23.95;12.77;;;;;;;21.10;60.18;101632.06;4951140;28;20099;-84
2023/06/08 08:37:24;;;;;;;18.58;11.30;;;;;;;21.00;58.72;101629.41;4949246;28;20031;-84
2023/06/08 08:39:50;;;;;;;18.48;11.10;;;;;;;21.24;58.38;101628.72;4936841;29;20471;-83
2023/06/08 08:42:23;;;;;;;23.73;11.88;;;;;;;21.59;58.93;101632.44;4964868;28;20122;-83
2023/06/08 08:44:53;;;;;;;19.55;11.57;;;;;;;21.47;56.73;101630.97;4949474;29;20043;-83
2023/06/08 08:47:19;;;;;;;20.65;12.88;;;;;;;21.23;56.85;101623.34;4950873;28;20039;-82
2023/06/08 08:49:48;;;;;;;20.90;11.73;;;;;;;21.43;58.05;101630.44;4948841;28;20094;-83
2023/06/08 08:52:17;;;;;;;20.63;11.95;;;;;;;21.54;56.55;101626.50;4948910;29;20471;-84
2023/06/08 08:54:43;;;;;;;16.48;10.25;;;;;;;22.42;58.02;101619.66;4948688;29;20038;-83
2023/06/08 08:57:09;;;;;;;19.63;11.57;;;;;;;22.88;53.26;101625.63;4948364;29;20034;-84
2023/06/08 08:59:36;;;;;;;19.58;11.52;;;;;;;22.30;54.72;101625.69;4950062;29;20047;-83
2023/06/08 09:02:03;;;;;;;18.13;11.35;;;;;;;22.04;54.59;101621.06;4965105;28;20039;-83
2023/06/08 09:04:28;;;;;;;19.20;10.88;;;;;;;21.84;56.79;101614.06;4949102;29;20046;-83
2023/06/08 09:06:53;;;;;;;11.68;8.15;;;;;;;22.61;59.12;101610.16;4965474;28;20030;-85
2023/06/08 09:09:20;;;;;;;17.88;10.10;;;;;;;23.03;53.36;101608.28;4963907;28;20032;-84
2023/06/08 09:11:59;;;;;;;16.88;9.25;;;;;;;23.42;54.65;101608.44;4947431;28;20035;-83
2023/06/08 09:14:26;;;;;;;18.48;10.93;;;;;;;23.22;52.48;101607.94;4964511;28;20179;-83
2023/06/08 09:16:53;;;;;;;17.20;9.45;;;;;;;23.47;54.93;101608.78;4948312;29;20062;-83
2023/06/08 09:19:19;;;;;;;19.75;9.75;;;;;;;23.82;53.87;101604.69;4948510;28;20031;-83
2023/06/08 09:21:45;;;;;;;54.70;11.98;;;;;;;24.34;54.56;101609.69;4949094;28;20217;-84
2023/06/08 09:24:14;;;;;;;21.27;8.90;;;;;;;24.81;53.88;101605.03;4949478;28;20023;-83
2023/06/08 09:26:49;;;;;;;14.95;9.02;;;;;;;24.94;49.05;101614.47;4902174;28;1414448;-83
2023/06/08 09:29:40;;;;;;;14.45;8.85;;;;;;;25.05;53.00;101595.63;4948916;29;20122;-83
2023/06/08 09:32:12;;;;;;;17.33;9.65;;;;;;;25.21;48.71;101598.25;4950891;28;20070;-83
2023/06/08 09:34:58;;;;;;;19.33;10.43;;;;;;;24.76;49.54;101600.03;4948935;29;20035;-83
2023/06/08 09:37:31;;;;;;;11.55;8.73;;;;;;;24.73;50.27;101593.97;4945559;29;20072;-84
2023/06/08 09:39:59;;;;;;;14.38;9.27;;;;;;;24.96;48.66;101600.38;4930351;29;20043;-83
2023/06/08 09:42:46;;;;;;;22.42;9.20;;;;;;;25.33;51.00;101587.53;4942738;29;20035;-84
2023/06/08 09:45:13;;;;;;;16.75;8.85;;;;;;;25.57;48.75;101598.41;4947922;29;20466;-81
2023/06/08 09:47:39;;;;;;;14.10;9.60;;;;;;;25.03;46.43;101604.13;4950560;28;20035;-84
2023/06/08 09:50:08;;;;;;;17.48;9.30;;;;;;;24.76;49.33;101585.22;4950238;28;20030;-84
2023/06/08 09:52:35;;;;;;;13.73;8.75;;;;;;;24.84;50.68;101590.72;4949869;28;20046;-84
2023/06/08 09:55:01;;;;;;;11.90;8.60;;;;;;;25.06;47.06;101584.28;4949098;28;20122;-84
2023/06/08 09:57:28;;;;;;;16.30;8.15;;;;;;;25.13;46.78;101590.88;4949607;29;20201;-83
2023/06/08 09:59:59;;;;;;;28.58;8.77;;;;;;;25.49;50.30;101589.28;4948217;29;20113;-84
2023/06/08 10:02:32;;;;;;;172.55;15.95;;;;;;;26.08;47.76;101586.50;4948600;29;20047;-84
2023/06/08 10:05:07;;;;;;;14.60;9.60;;;;;;;25.77;47.04;101578.34;4949312;29;20046;-83
2023/06/08 10:07:35;;;;;;;14.52;8.48;;;;;;;25.48;45.29;101582.84;4949139;29;20042;-84
2023/06/08 10:10:13;;;;;;;11.90;7.55;;;;;;;25.40;48.06;101569.84;4949084;28;20046;-83
2023/06/08 10:12:39;;;;;;;14.65;7.63;;;;;;;25.90;46.48;101584.97;4947222;29;20494;-83
2023/06/08 10:15:05;;;;;;;9.98;7.22;;;;;;;25.99;45.00;101579.31;4962684;28;20054;-84
2023/06/08 10:17:32;;;;;;;13.27;6.75;;;;;;;26.41;44.07;101581.31;4956870;28;20030;-84
2023/06/08 10:19:58;;;;;;;9.95;7.38;;;;;;;26.60;44.19;101566.75;4950493;28;20191;-83
2023/06/08 10:22:25;;;;;;;9.20;6.55;;;;;;;26.77;44.53;101572.06;4949967;28;20079;-84
2023/06/08 10:24:51;;;;;;;12.50;8.13;;;;;;;26.28;42.28;101564.41;4946535;28;20039;-83
2023/06/08 10:27:36;;;;;;;12.40;8.15;;;;;;;26.16;42.86;101583.56;4949193;28;20455;-84
2023/06/08 10:30:05;;;;;;;12.25;7.25;;;;;;;25.76;43.27;101580.28;4950309;28;20031;-83
2023/06/08 10:32:36;;;;;;;14.98;7.75;;;;;;;25.76;44.24;101560.78;4965190;28;20462;-83
2023/06/08 10:35:04;;;;;;;10.50;6.60;;;;;;;26.31;46.84;101562.09;4948253;28;20035;-86
2023/06/08 10:37:31;;;;;;;13.32;7.57;;;;;;;26.32;42.43;101560.19;4950334;28;20294;-84
2023/06/08 10:39:58;;;;;;;13.90;7.45;;;;;;;26.18;43.72;101550.78;4932884;29;20138;-83
2023/06/08 10:42:24;;;;;;;13.98;8.75;;;;;;;25.85;42.52;101558.75;4947079;28;20027;-84
2023/06/08 10:44:57;;;;;;;10.73;7.15;;;;;;;25.68;45.60;101560.81;4949715;28;20053;-83
2023/06/08 10:47:24;;;;;;;14.30;7.28;;;;;;;25.52;44.43;101569.41;4948464;28;20050;-84
2023/06/08 10:50:08;;;;;;;11.32;6.53;;;;;;;25.38;45.78;101573.91;4949531;28;20039;-83
2023/06/08 10:52:46;;;;;;;12.77;6.93;;;;;;;24.85;45.88;101553.50;4964534;28;20072;-84
2023/06/08 10:55:13;;;;;;;9.80;6.70;;;;;;;25.08;46.97;101553.47;4949272;28;20035;-84
2023/06/08 10:57:44;;;;;;;12.30;7.80;;;;;;;25.25;43.81;101555.06;4948018;28;20053;-84
2023/06/08 11:00:25;;;;;;;15.38;6.82;;;;;;;25.57;44.22;101553.81;4949280;28;20061;-83
2023/06/08 11:02:56;;;;;;;10.77;7.00;;;;;;;25.92;45.31;101557.75;4948658;29;20067;-84
2023/06/08 11:05:23;;;;;;;12.32;6.97;;;;;;;25.59;45.28;101550.84;4949165;28;20618;-83
2023/06/08 11:07:49;;;;;;;10.43;7.97;;;;;;;25.47;42.72;101549.59;4948289;29;20118;-83
2023/06/08 11:10:15;;;;;;;12.52;7.45;;;;;;;25.80;46.51;101545.38;4947807;28;20123;-83
2023/06/08 11:12:42;;;;;;;13.57;7.40;;;;;;;25.84;44.32;101546.72;4943333;29;20074;-84
2023/06/08 11:15:07;;;;;;;8.88;6.68;;;;;;;25.88;47.22;101536.03;4949327;29;20043;-84
2023/06/08 11:17:55;;;;;;;16.85;8.70;;;;;;;25.56;44.46;101531.75;4949793;28;20501;-82